createdAt,value
2023-01-08T00:00:57.633Z,90.26
2023-01-08T00:05:50.929Z,89.67
2023-01-08T00:10:44.049Z,90.23
2023-01-08T00:15:37.487Z,90.50
2023-01-08T00:20:32.378Z,91.41
2023-01-08T00:25:25.647Z,91.60
2023-01-08T00:30:18.896Z,91.80
2023-01-08T00:35:12.191Z,91.87
2023-01-08T00:40:08.506Z,92.39
2023-01-08T00:45:01.759Z,92.42
2023-01-08T00:49:54.995Z,91.71
2023-01-08T00:54:48.181Z,89.67
2023-01-08T00:59:42.909Z,89.44
2023-01-08T01:04:36.285Z,90.14
2023-01-08T01:09:29.651Z,90.63
2023-01-08T01:14:23.037Z,90.85
2023-01-08T01:19:19.124Z,91.16
2023-01-08T01:24:15.830Z,91.07
2023-01-08T01:29:09.059Z,90.88
2023-01-08T01:34:02.418Z,91.05
2023-01-08T01:38:59.181Z,90.95
2023-01-08T01:43:52.983Z,91.44
2023-01-08T01:48:48.077Z,91.25
2023-01-08T01:53:41.944Z,91.29
2023-01-08T01:58:37.188Z,92.13
2023-01-08T02:03:32.181Z,92.73
2023-01-08T02:08:35.738Z,92.50
2023-01-08T02:13:35.290Z,92.85
2023-01-08T02:18:38.235Z,93.48
2023-01-08T02:23:38.608Z,94.26
2023-01-08T02:28:37.811Z,92.01
2023-01-08T02:33:33.141Z,90.79
2023-01-08T02:38:27.092Z,90.45
2023-01-08T02:43:27.423Z,90.43
2023-01-08T02:48:34.211Z,90.20
2023-01-08T02:53:30.235Z,90.50
2023-01-08T02:58:24.712Z,90.72
2023-01-08T03:03:20.734Z,91.73
2023-01-08T03:08:15.788Z,91.44
2023-01-08T03:13:16.757Z,91.06
2023-01-08T03:18:15.049Z,90.47
2023-01-08T03:23:11.813Z,90.32
2023-01-08T03:28:13.118Z,91.40
2023-01-08T03:33:08.789Z,91.91
2023-01-08T03:38:08.955Z,92.65
2023-01-08T03:43:02.348Z,94.79
2023-01-08T03:47:58.389Z,91.43
2023-01-08T03:52:51.575Z,89.24
2023-01-08T03:57:44.737Z,89.46
2023-01-08T04:02:38.360Z,89.14
2023-01-08T04:07:32.933Z,89.76
2023-01-08T04:12:26.064Z,89.02
2023-01-08T04:17:19.292Z,89.61
2023-01-08T04:22:12.492Z,90.32
2023-01-08T04:27:07.170Z,91.30
2023-01-08T04:32:01.360Z,92.58
2023-01-08T04:36:54.590Z,93.13
2023-01-08T04:41:47.958Z,93.95
2023-01-08T04:46:42.552Z,92.14
2023-01-08T04:51:35.858Z,90.38
2023-01-08T04:56:29.120Z,89.80
2023-01-08T05:01:25.419Z,90.11
2023-01-08T05:06:20.126Z,90.23
2023-01-08T05:11:13.301Z,89.83
2023-01-08T05:16:07.032Z,90.03
2023-01-08T05:21:03.032Z,91.01
2023-01-08T05:25:59.913Z,91.14
2023-01-08T05:30:53.194Z,91.35
2023-01-08T05:35:46.721Z,90.30
2023-01-08T05:40:40.077Z,90.75
2023-01-08T05:45:35.183Z,91.29
2023-01-08T05:50:28.422Z,91.67
2023-01-08T05:55:21.608Z,91.48
2023-01-08T06:00:16.410Z,91.34
2023-01-08T06:05:11.415Z,90.79
2023-01-08T06:10:04.957Z,90.23
2023-01-08T06:14:58.154Z,89.91
2023-01-08T06:19:51.403Z,91.09
2023-01-08T06:24:46.092Z,95.12
2023-01-08T06:29:39.385Z,95.67
2023-01-08T06:34:32.752Z,95.49
2023-01-08T06:39:28.068Z,95.40
2023-01-08T06:44:23.173Z,95.17
2023-01-08T06:49:17.637Z,94.90
2023-01-08T06:54:13.469Z,94.73
2023-01-08T06:59:07.501Z,94.59
2023-01-08T07:04:02.309Z,94.28
2023-01-08T07:08:58.084Z,93.67
2023-01-08T07:13:51.586Z,92.64
2023-01-08T07:18:45.022Z,90.61
2023-01-08T07:23:39.797Z,89.71
2023-01-08T07:28:33.414Z,89.80
2023-01-08T07:33:26.799Z,90.54
2023-01-08T07:38:20.080Z,91.17
2023-01-08T07:43:15.065Z,91.76
2023-01-08T07:48:10.670Z,92.25
2023-01-08T07:53:04.352Z,92.10
2023-01-08T07:57:57.770Z,91.60
2023-01-08T08:02:52.497Z,91.31
2023-01-08T08:07:45.900Z,91.13
2023-01-08T08:12:39.200Z,91.20
2023-01-08T08:17:32.348Z,90.46
2023-01-08T08:22:27.558Z,90.38
2023-01-08T08:27:20.800Z,90.21
2023-01-08T08:32:14.124Z,90.55
2023-01-08T08:37:07.297Z,90.25
2023-01-08T08:42:01.965Z,89.01
2023-01-08T08:46:55.284Z,87.71
2023-01-08T08:51:48.596Z,86.09
2023-01-08T08:56:42.089Z,84.68
2023-01-08T09:01:36.850Z,84.64
2023-01-08T09:06:30.100Z,84.52
2023-01-08T09:11:23.427Z,84.43
2023-01-08T09:16:16.689Z,81.73
2023-01-08T09:21:11.995Z,78.92
2023-01-08T09:26:07.289Z,73.95
2023-01-08T09:31:02.950Z,70.27
2023-01-08T09:35:56.761Z,66.56
2023-01-08T09:40:59.693Z,61.97
2023-01-08T09:45:56.834Z,60.38
2023-01-08T09:50:52.133Z,58.58
2023-01-08T09:55:51.766Z,57.99
2023-01-08T10:00:51.088Z,57.28
2023-01-08T10:05:44.432Z,57.79
2023-01-08T10:10:39.189Z,58.72
2023-01-08T10:15:32.460Z,60.14
2023-01-08T10:20:29.020Z,60.49
2023-01-08T10:25:24.232Z,59.51
2023-01-08T10:30:19.681Z,59.96
2023-01-08T10:35:20.267Z,59.36
2023-01-08T10:40:25.367Z,58.97
2023-01-08T10:45:25.548Z,57.97
2023-01-08T10:50:23.814Z,56.46
2023-01-08T10:55:25.845Z,55.86
2023-01-08T11:00:30.929Z,54.61
2023-01-08T11:05:33.382Z,54.40
2023-01-08T11:10:29.973Z,54.96
2023-01-08T11:15:32.366Z,54.07
2023-01-08T11:20:30.923Z,53.72
2023-01-08T11:25:31.436Z,54.70
2023-01-08T11:30:25.103Z,53.53
2023-01-08T11:35:22.462Z,53.42
2023-01-08T11:40:17.477Z,54.36
2023-01-08T11:45:28.865Z,52.93
2023-01-08T11:50:29.023Z,53.74
2023-01-08T11:55:33.586Z,56.02
2023-01-08T12:00:58.433Z,58.61
2023-01-08T12:06:00.545Z,60.58
2023-01-08T12:11:03.917Z,61.83
2023-01-08T12:16:11.149Z,62.77
2023-01-08T12:21:14.403Z,64.75
2023-01-08T12:26:25.489Z,65.40
2023-01-08T12:31:57.646Z,66.09
2023-01-08T12:37:03.843Z,66.93
2023-01-08T12:42:08.571Z,67.07
2023-01-08T12:47:05.612Z,67.29
2023-01-08T12:52:08.613Z,67.37
2023-01-08T12:57:10.200Z,67.31
2023-01-08T13:02:18.199Z,68.07
2023-01-08T13:07:19.192Z,68.19
2023-01-08T13:12:15.998Z,68.61
2023-01-08T13:17:19.136Z,68.63
2023-01-08T13:22:31.403Z,68.74
2023-01-08T13:27:30.581Z,68.63
2023-01-08T13:32:47.044Z,68.71
2023-01-08T13:37:40.372Z,68.84
2023-01-08T13:42:35.676Z,68.64
2023-01-08T13:47:39.601Z,67.84
2023-01-08T13:52:41.321Z,67.82
2023-01-08T13:57:42.697Z,68.50
2023-01-08T14:02:50.343Z,69.21
2023-01-08T14:07:45.287Z,69.76
2023-01-08T14:12:38.478Z,69.58
2023-01-08T14:17:33.831Z,69.89
2023-01-08T14:22:32.224Z,70.43
2023-01-08T14:27:29.756Z,71.04
2023-01-08T14:32:25.071Z,71.02
2023-01-08T14:37:18.877Z,71.28
2023-01-08T14:42:35.104Z,71.24
2023-01-08T14:47:34.812Z,71.44
2023-01-08T14:52:28.327Z,71.61
2023-01-08T14:57:24.177Z,72.18
2023-01-08T15:02:25.307Z,73.02
2023-01-08T15:07:27.714Z,73.55
2023-01-08T15:12:25.820Z,74.76
2023-01-08T15:17:21.394Z,75.30
2023-01-08T15:22:19.834Z,76.08
2023-01-08T15:27:21.484Z,77.04
2023-01-08T15:32:23.427Z,77.52
2023-01-08T15:37:19.405Z,77.75
2023-01-08T15:42:40.637Z,78.58
2023-01-08T15:47:34.195Z,78.85
2023-01-08T15:52:30.774Z,79.35
2023-01-08T15:57:25.645Z,79.97
2023-01-08T16:02:19.324Z,80.53
2023-01-08T16:07:12.853Z,81.38
2023-01-08T16:12:06.828Z,82.17
2023-01-08T16:17:02.678Z,83.04
2023-01-08T16:21:56.021Z,83.90
2023-01-08T16:26:49.318Z,84.79
2023-01-08T16:31:46.042Z,85.13
2023-01-08T16:36:40.909Z,85.86
2023-01-08T16:41:36.925Z,86.41
2023-01-08T16:46:30.284Z,86.70
2023-01-08T16:51:25.402Z,87.08
2023-01-08T16:56:20.161Z,87.61
2023-01-08T17:01:13.877Z,88.24
2023-01-08T17:06:08.832Z,88.38
2023-01-08T17:11:02.268Z,88.51
2023-01-08T17:15:59.012Z,89.05
2023-01-08T17:20:56.828Z,90.00
2023-01-08T17:25:50.143Z,90.55
2023-01-08T17:30:43.531Z,90.85
2023-01-08T17:35:38.236Z,91.48
2023-01-08T17:40:34.901Z,91.59
2023-01-08T17:45:28.167Z,92.17
2023-01-08T17:50:21.693Z,92.20
2023-01-08T17:55:16.609Z,92.26
2023-01-08T18:00:11.796Z,92.12
2023-01-08T18:05:07.195Z,92.51
2023-01-08T18:10:03.639Z,93.11
2023-01-08T18:14:58.282Z,93.14
2023-01-08T18:19:51.706Z,93.20
2023-01-08T18:24:48.023Z,93.48
2023-01-08T18:29:44.047Z,93.33
2023-01-08T18:34:39.026Z,93.37
2023-01-08T18:39:34.938Z,93.75
2023-01-08T18:44:28.321Z,93.66
2023-01-08T18:49:23.641Z,93.16
2023-01-08T18:54:21.314Z,92.72
2023-01-08T18:59:15.618Z,93.43
2023-01-08T19:04:11.510Z,93.21
2023-01-08T19:09:07.813Z,93.56
2023-01-08T19:14:02.428Z,93.74
2023-01-08T19:18:55.909Z,93.92
2023-01-08T19:23:49.534Z,94.15
2023-01-08T19:28:43.294Z,94.51
2023-01-08T19:33:38.001Z,94.99
2023-01-08T19:38:31.470Z,95.21
2023-01-08T19:43:46.010Z,95.40
2023-01-08T19:48:42.687Z,95.70
2023-01-08T19:53:36.120Z,95.62
2023-01-08T19:58:29.965Z,95.27
2023-01-08T20:03:26.637Z,95.66
2023-01-08T20:08:22.273Z,96.13
2023-01-08T20:13:15.674Z,96.29
2023-01-08T20:18:11.592Z,95.80
2023-01-08T20:23:05.031Z,96.09
2023-01-08T20:28:01.623Z,96.29
2023-01-08T20:32:55.003Z,96.61
2023-01-08T20:37:51.062Z,96.82
2023-01-08T20:42:47.018Z,96.86
2023-01-08T20:47:45.723Z,97.28
2023-01-08T20:52:39.248Z,97.30
2023-01-08T20:57:32.488Z,96.80
2023-01-08T21:02:26.040Z,96.42
2023-01-08T21:07:20.672Z,96.72
2023-01-08T21:12:15.270Z,97.22
2023-01-08T21:17:08.412Z,97.33
2023-01-08T21:22:01.563Z,97.42
2023-01-08T21:26:56.324Z,97.11
2023-01-08T21:31:50.179Z,97.08
2023-01-08T21:36:43.639Z,97.32
2023-01-08T21:41:55.935Z,97.19
2023-01-08T21:46:52.044Z,97.48
2023-01-08T21:52:02.699Z,97.11
2023-01-08T21:56:55.923Z,97.07
2023-01-08T22:01:50.652Z,96.25
2023-01-08T22:06:44.026Z,95.71
2023-01-08T22:11:37.332Z,95.31
2023-01-08T22:16:30.685Z,95.76
2023-01-08T22:21:25.366Z,95.82
2023-01-08T22:26:22.849Z,96.03
2023-01-08T22:31:17.309Z,96.47
2023-01-08T22:36:13.431Z,96.52
2023-01-08T22:41:15.433Z,96.86
2023-01-08T22:46:08.809Z,97.08
2023-01-08T22:51:04.088Z,97.33
2023-01-08T22:55:59.554Z,97.52
2023-01-08T23:00:54.135Z,98.14
2023-01-08T23:05:47.487Z,98.71
2023-01-08T23:10:40.718Z,98.02
2023-01-08T23:15:33.909Z,98.35
2023-01-08T23:20:28.565Z,98.40
2023-01-08T23:25:21.918Z,98.31
2023-01-08T23:30:15.365Z,98.58
2023-01-08T23:35:10.095Z,98.40
2023-01-08T23:40:04.810Z,99.29
2023-01-08T23:45:01.178Z,99.71
2023-01-08T23:49:54.435Z,100.00
2023-01-08T23:54:47.560Z,100.00
2023-01-08T23:59:42.156Z,100.00
